createdAt,value
2018-09-20T09:10:01.469Z,27.00
2018-09-20T09:10:34.654Z,27.00
2018-09-20T09:11:09.147Z,27.10
2018-09-20T09:11:44.913Z,27.10
2018-09-20T09:12:18.267Z,27.10
2018-09-20T09:12:51.662Z,27.10
2018-09-20T09:13:24.837Z,27.20
2018-09-20T09:13:58.550Z,27.20
2018-09-20T09:14:31.832Z,27.20
2018-09-20T09:15:05.082Z,27.20
2018-09-20T09:15:38.417Z,27.20
2018-09-20T09:16:11.973Z,27.20
2018-09-20T09:16:45.139Z,27.20
2018-09-20T09:17:18.505Z,27.30
2018-09-20T09:17:52.996Z,27.30
2018-09-20T09:18:26.294Z,27.30
2018-09-20T09:18:59.639Z,27.30
2018-09-20T09:19:32.881Z,27.40
2018-09-20T09:20:06.133Z,27.40
2018-09-20T09:20:39.345Z,27.40
2018-09-20T09:21:12.681Z,27.50
2018-09-20T09:21:45.859Z,27.50
2018-09-20T09:22:19.203Z,27.50
2018-09-20T09:22:52.654Z,27.60
2018-09-20T09:23:25.797Z,27.60
2018-09-20T09:23:59.212Z,27.60
2018-09-20T09:24:32.479Z,27.60
2018-09-20T09:25:06.003Z,27.60
2018-09-20T09:25:39.277Z,27.70
2018-09-20T09:26:12.931Z,27.70
2018-09-20T09:26:46.108Z,27.70
2018-09-20T09:27:19.530Z,27.70
2018-09-20T09:27:52.772Z,27.60
2018-09-20T09:28:26.124Z,27.60
2018-09-20T09:28:59.439Z,27.70
2018-09-20T09:29:32.721Z,27.70
2018-09-20T09:30:06.619Z,27.60
2018-09-20T09:30:39.835Z,27.60
2018-09-20T09:31:13.073Z,27.60
2018-09-20T09:31:46.311Z,27.60
2018-09-20T09:32:20.635Z,27.60
2018-09-20T09:32:53.966Z,27.50
2018-09-20T09:33:27.201Z,27.60
2018-09-20T09:34:00.471Z,27.60
2018-09-20T09:34:35.057Z,27.60
2018-09-20T09:35:08.384Z,27.60
2018-09-20T09:35:41.585Z,27.60
2018-09-20T09:36:14.946Z,27.50
2018-09-20T09:36:48.622Z,27.50
2018-09-20T09:37:21.774Z,27.50
2018-09-20T09:37:55.686Z,27.50
2018-09-20T09:38:28.951Z,27.50
2018-09-20T09:39:02.152Z,27.40
2018-09-20T09:39:36.115Z,27.40
2018-09-20T09:40:09.317Z,27.40
2018-09-20T09:40:42.611Z,27.40
2018-09-20T09:41:15.904Z,27.30
2018-09-20T09:41:49.162Z,27.30
2018-09-20T09:42:22.556Z,27.30
2018-09-20T09:42:56.362Z,27.30
2018-09-20T09:43:29.475Z,27.30
2018-09-20T09:44:03.074Z,27.30
2018-09-20T09:44:36.627Z,27.20
2018-09-20T09:45:09.795Z,27.20
2018-09-20T09:45:43.103Z,27.20
2018-09-20T09:46:16.409Z,27.20
2018-09-20T09:46:50.108Z,27.20
2018-09-20T09:47:23.527Z,27.20
2018-09-20T09:47:56.828Z,27.20
2018-09-20T09:48:30.083Z,27.20
2018-09-20T09:49:03.378Z,27.20
2018-09-20T09:49:36.702Z,27.20
2018-09-20T09:50:09.865Z,27.20
2018-09-20T09:50:43.045Z,27.20
2018-09-20T09:51:16.284Z,27.30
2018-09-20T09:51:50.024Z,27.30
2018-09-20T09:52:23.360Z,27.30
2018-09-20T09:52:56.750Z,27.40
2018-09-20T09:53:30.333Z,27.40
2018-09-20T09:54:03.523Z,27.40
2018-09-20T09:54:37.225Z,27.50
2018-09-20T09:55:11.078Z,27.50
2018-09-20T09:55:44.339Z,27.60
2018-09-20T09:56:17.568Z,27.60
2018-09-20T09:56:50.837Z,27.70
2018-09-20T09:57:24.513Z,27.70
2018-09-20T09:57:57.722Z,27.70
2018-09-20T09:58:31.322Z,27.80
2018-09-20T09:59:04.610Z,27.80
2018-09-20T09:59:37.780Z,27.80
2018-09-20T10:00:10.956Z,27.90
2018-09-20T10:00:44.417Z,27.90
2018-09-20T10:01:18.052Z,28.00
2018-09-20T10:01:51.297Z,28.00
2018-09-20T10:02:24.660Z,28.00
2018-09-20T10:02:58.937Z,28.10
2018-09-20T10:03:32.378Z,28.10
2018-09-20T10:04:05.686Z,28.10
2018-09-20T10:04:38.844Z,28.20
2018-09-20T10:05:12.190Z,28.20
2018-09-20T10:05:45.607Z,28.20
2018-09-20T10:06:19.029Z,28.20
2018-09-20T10:06:52.823Z,28.30
2018-09-20T10:07:26.421Z,28.30
2018-09-20T10:07:59.562Z,28.40
2018-09-20T10:08:32.817Z,28.40
2018-09-20T10:09:08.709Z,28.50
2018-09-20T10:09:41.948Z,28.50
2018-09-20T10:10:15.503Z,28.50
2018-09-20T10:10:48.724Z,28.60
2018-09-20T10:11:22.139Z,28.60
2018-09-20T10:11:55.381Z,28.60
2018-09-20T10:12:28.804Z,28.60
2018-09-20T10:13:02.315Z,28.60
2018-09-20T10:13:35.787Z,28.60
2018-09-20T10:14:09.333Z,28.70
2018-09-20T10:14:42.643Z,28.70
2018-09-20T10:15:16.869Z,28.70
2018-09-20T10:15:50.304Z,28.70
2018-09-20T10:16:23.599Z,28.70
2018-09-20T10:16:56.887Z,28.70
2018-09-20T10:17:30.130Z,28.70
2018-09-20T10:18:04.239Z,28.80
2018-09-20T10:18:37.466Z,28.80
2018-09-20T10:19:10.614Z,28.80
2018-09-20T10:19:43.794Z,28.80
2018-09-20T10:20:17.554Z,28.80
2018-09-20T10:20:50.734Z,28.80
2018-09-20T10:21:24.105Z,28.80
2018-09-20T10:21:57.373Z,28.80
2018-09-20T10:22:31.526Z,28.80
2018-09-20T10:23:04.702Z,28.80
2018-09-20T10:23:37.923Z,28.80
2018-09-20T10:24:11.131Z,28.80
2018-09-20T10:24:44.310Z,28.80
2018-09-20T10:25:17.826Z,28.80
2018-09-20T10:25:51.030Z,28.80
2018-09-20T10:26:24.689Z,28.80
2018-09-20T10:26:57.868Z,28.80
2018-09-20T10:27:31.045Z,28.80
2018-09-20T10:28:04.229Z,28.80
2018-09-20T10:28:37.434Z,28.90
2018-09-20T10:29:10.783Z,28.90
2018-09-20T10:29:44.030Z,28.90
2018-09-20T10:30:17.213Z,28.90
2018-09-20T10:30:50.501Z,28.80
2018-09-20T10:31:23.766Z,28.90
2018-09-20T10:31:56.986Z,28.80
2018-09-20T10:32:30.188Z,28.90
2018-09-20T10:33:03.378Z,28.90
2018-09-20T10:33:36.748Z,28.90
2018-09-20T10:34:10.174Z,28.90
2018-09-20T10:34:43.310Z,28.90
2018-09-20T10:35:16.495Z,28.90
2018-09-20T10:35:49.685Z,28.90
2018-09-20T10:36:22.857Z,28.90
2018-09-20T10:36:56.069Z,28.90
2018-09-20T10:37:29.476Z,29.00
2018-09-20T10:38:02.890Z,29.00
2018-09-20T10:38:36.282Z,29.00
2018-09-20T10:39:11.476Z,29.00
2018-09-20T10:39:44.816Z,29.00
2018-09-20T10:40:18.366Z,29.10
2018-09-20T10:40:51.584Z,29.00
2018-09-20T10:41:24.796Z,29.00
2018-09-20T10:41:58.166Z,29.00
2018-09-20T10:42:31.389Z,29.00
2018-09-20T10:43:04.639Z,29.00
2018-09-20T10:43:37.951Z,29.00
2018-09-20T10:44:11.167Z,29.00
2018-09-20T10:44:44.560Z,29.00
2018-09-20T10:45:17.927Z,29.00
2018-09-20T10:45:51.115Z,29.00
2018-09-20T10:46:24.577Z,29.00
2018-09-20T10:46:58.202Z,29.00
2018-09-20T10:47:31.428Z,29.00
2018-09-20T10:48:04.599Z,29.00
2018-09-20T10:48:37.776Z,29.10
2018-09-20T10:49:10.923Z,29.10
2018-09-20T10:49:44.338Z,29.10
2018-09-20T10:50:17.482Z,29.10
2018-09-20T10:50:51.260Z,29.10
2018-09-20T10:51:24.422Z,29.20
2018-09-20T10:51:57.838Z,29.20
2018-09-20T10:52:31.146Z,29.20
2018-09-20T10:53:04.307Z,29.10
2018-09-20T10:53:37.555Z,29.20
2018-09-20T10:54:10.941Z,29.20
2018-09-20T10:54:44.311Z,29.20
2018-09-20T10:55:17.407Z,29.30
2018-09-20T10:55:51.110Z,29.30
2018-09-20T10:56:24.405Z,29.30
2018-09-20T10:57:03.679Z,29.30
2018-09-20T10:57:37.092Z,29.40
2018-09-20T10:58:10.282Z,29.40
2018-09-20T10:58:43.611Z,29.40
2018-09-20T10:59:16.722Z,29.40
2018-09-20T10:59:49.957Z,29.40
2018-09-20T11:00:23.472Z,29.40
2018-09-20T11:00:56.703Z,29.50
2018-09-20T11:01:30.173Z,29.50
2018-09-20T11:02:03.416Z,29.50
2018-09-20T11:02:36.628Z,29.50
2018-09-20T11:03:10.190Z,29.50
2018-09-20T11:03:43.315Z,29.50
2018-09-20T11:04:16.472Z,29.50
2018-09-20T11:04:50.537Z,29.50
2018-09-20T11:05:23.914Z,29.50
2018-09-20T11:05:57.027Z,29.50
2018-09-20T11:06:30.409Z,29.50
2018-09-20T11:07:03.858Z,29.50
2018-09-20T11:07:37.087Z,29.50
2018-09-20T11:08:10.254Z,29.50
2018-09-20T11:08:43.659Z,29.50
2018-09-20T11:09:16.810Z,29.50
2018-09-20T11:09:49.984Z,29.50
2018-09-20T11:10:23.194Z,29.50
2018-09-20T11:10:56.396Z,29.60
2018-09-20T11:11:29.689Z,29.60
2018-09-20T11:12:03.272Z,29.60
2018-09-20T11:12:36.527Z,29.60
2018-09-20T11:13:09.904Z,29.60
2018-09-20T11:13:43.156Z,29.70
2018-09-20T11:14:16.451Z,29.70
2018-09-20T11:14:49.742Z,29.70
2018-09-20T11:15:22.962Z,29.70
2018-09-20T11:16:03.025Z,29.70
2018-09-20T11:16:37.051Z,29.70
2018-09-20T11:17:10.318Z,29.70
2018-09-20T11:17:43.928Z,29.70
2018-09-20T11:18:17.103Z,29.70
2018-09-20T11:18:50.314Z,29.70
2018-09-20T11:19:23.706Z,29.70
2018-09-20T11:19:57.354Z,29.70
2018-09-20T11:20:30.603Z,29.80
2018-09-20T11:21:03.773Z,29.80
2018-09-20T11:21:37.056Z,29.80
2018-09-20T11:22:10.775Z,29.80
2018-09-20T11:22:44.196Z,29.80
2018-09-20T11:23:17.407Z,29.80
2018-09-20T11:23:50.660Z,29.80
2018-09-20T11:24:23.939Z,29.80
2018-09-20T11:24:57.213Z,29.80
2018-09-20T11:25:30.350Z,29.70
2018-09-20T11:26:03.655Z,29.70
2018-09-20T11:26:36.858Z,29.70
2018-09-20T11:27:10.647Z,29.70
2018-09-20T11:27:43.816Z,29.70
2018-09-20T11:28:16.933Z,29.70
2018-09-20T11:28:50.065Z,29.60
2018-09-20T11:29:23.656Z,29.60
2018-09-20T11:29:57.105Z,29.60
2018-09-20T11:30:30.536Z,29.50
2018-09-20T11:31:03.753Z,29.50
2018-09-20T11:31:37.035Z,29.40
2018-09-20T11:32:10.275Z,29.50
2018-09-20T11:32:43.554Z,29.50
2018-09-20T11:33:16.700Z,29.50
2018-09-20T11:33:49.861Z,29.50
2018-09-20T11:34:23.224Z,29.50
2018-09-20T11:34:56.651Z,29.50
2018-09-20T11:35:29.811Z,29.60
2018-09-20T11:36:03.027Z,29.60
2018-09-20T11:36:36.268Z,29.50
2018-09-20T11:37:09.500Z,29.50
2018-09-20T11:37:42.695Z,29.50
2018-09-20T11:38:16.149Z,29.50
2018-09-20T11:38:49.307Z,29.60
2018-09-20T11:39:22.492Z,29.60
2018-09-20T11:39:55.961Z,29.60
2018-09-20T11:40:29.140Z,29.60
2018-09-20T11:41:02.405Z,29.60
2018-09-20T11:41:35.590Z,29.60
2018-09-20T11:42:08.843Z,29.60
2018-09-20T11:42:42.045Z,29.60
2018-09-20T11:43:15.191Z,29.50
2018-09-20T11:43:48.373Z,29.50
2018-09-20T11:44:21.582Z,29.50
2018-09-20T11:44:54.696Z,29.50
2018-09-20T11:45:27.966Z,29.50
2018-09-20T11:46:01.093Z,29.60
2018-09-20T11:46:34.387Z,29.50
2018-09-20T11:47:07.572Z,29.50
2018-09-20T11:47:40.979Z,29.50
2018-09-20T11:48:14.202Z,29.50
2018-09-20T11:48:47.622Z,29.50
2018-09-20T11:49:20.876Z,29.50
2018-09-20T11:49:54.045Z,29.60
2018-09-20T11:50:27.468Z,29.60
2018-09-20T11:51:00.720Z,29.60
2018-09-20T11:51:34.088Z,29.60
2018-09-20T11:52:07.344Z,29.70
2018-09-20T11:53:43.932Z,29.70
2018-09-20T11:54:17.189Z,29.70
2018-09-20T11:54:50.499Z,29.70
2018-09-20T11:55:24.283Z,29.70
2018-09-20T11:55:57.672Z,29.80
2018-09-20T11:56:30.877Z,29.80
2018-09-20T11:57:04.418Z,29.80
2018-09-20T11:57:38.389Z,29.90
2018-09-20T11:58:11.641Z,29.90
2018-09-20T11:58:44.866Z,29.90
2018-09-20T11:59:18.361Z,29.90
2018-09-20T11:59:51.813Z,30.00
2018-09-20T12:00:25.071Z,30.00
2018-09-20T12:00:58.476Z,30.00
2018-09-20T12:01:31.633Z,30.00
2018-09-20T12:02:05.144Z,30.10
2018-09-20T12:02:38.311Z,30.10
2018-09-20T12:03:11.674Z,30.10
2018-09-20T12:03:44.939Z,30.10
2018-09-20T12:04:18.495Z,30.10
2018-09-20T12:04:51.796Z,30.10
2018-09-20T12:05:25.089Z,30.10
2018-09-20T12:05:58.285Z,30.10
2018-09-20T12:06:31.741Z,30.10
2018-09-20T12:07:04.942Z,30.10
2018-09-20T12:07:38.841Z,30.10
2018-09-20T12:08:12.187Z,30.10
2018-09-20T12:08:45.411Z,30.10
2018-09-20T12:09:18.721Z,30.20
2018-09-20T12:09:52.546Z,30.20
2018-09-20T12:10:25.735Z,30.30
2018-09-20T12:10:59.314Z,30.30
2018-09-20T12:11:32.733Z,30.40
2018-09-20T12:12:06.154Z,30.40
2018-09-20T12:12:39.573Z,30.40
2018-09-20T12:13:13.406Z,30.40
2018-09-20T12:13:46.807Z,30.40
2018-09-20T12:14:20.376Z,30.50
2018-09-20T12:14:53.576Z,30.50
2018-09-20T12:15:26.914Z,30.50
2018-09-20T12:16:00.520Z,30.60
2018-09-20T12:16:33.703Z,30.50
2018-09-20T12:17:07.030Z,30.50
2018-09-20T12:17:40.291Z,30.60
2018-09-20T12:18:13.493Z,30.60
2018-09-20T12:18:46.922Z,30.60
2018-09-20T12:19:20.206Z,30.60
2018-09-20T12:19:53.455Z,30.60
2018-09-20T12:20:26.654Z,30.60
2018-09-20T12:21:00.142Z,30.70
2018-09-20T12:21:33.322Z,30.70
2018-09-20T12:22:06.978Z,30.70
2018-09-20T12:23:17.526Z,30.70
2018-09-20T12:23:50.853Z,30.70
2018-09-20T12:24:24.401Z,30.70
2018-09-20T12:24:57.579Z,30.70
2018-09-20T12:25:30.746Z,30.80
2018-09-20T12:26:04.007Z,30.80
2018-09-20T12:26:37.113Z,30.70
2018-09-20T12:27:10.282Z,30.80
2018-09-20T12:27:43.500Z,30.80
2018-09-20T12:28:16.660Z,30.80
2018-09-20T12:28:50.095Z,30.80
2018-09-20T12:29:23.329Z,30.80
2018-09-20T12:29:56.679Z,30.80
2018-09-20T12:30:32.870Z,30.80
2018-09-20T12:31:06.097Z,30.80
2018-09-20T12:31:39.338Z,30.80
2018-09-20T12:32:12.671Z,30.80
2018-09-20T12:32:46.219Z,30.80
2018-09-20T12:33:19.346Z,30.80
2018-09-20T12:33:52.653Z,30.90
2018-09-20T12:34:25.928Z,30.90
2018-09-20T12:34:59.309Z,30.90
2018-09-20T12:35:32.506Z,30.90
2018-09-20T12:36:07.167Z,30.90
2018-09-20T12:36:40.358Z,30.90
2018-09-20T12:37:13.936Z,31.00
2018-09-20T12:37:47.111Z,31.00
2018-09-20T12:38:20.299Z,31.00
2018-09-20T12:38:54.356Z,31.00
2018-09-20T12:39:27.576Z,31.10
2018-09-20T12:40:00.797Z,31.10
2018-09-20T12:40:34.437Z,31.10
2018-09-20T12:41:08.258Z,31.10
2018-09-20T12:41:41.817Z,31.10
2018-09-20T12:42:15.065Z,31.10
2018-09-20T12:42:48.325Z,31.10
2018-09-20T12:43:21.949Z,31.10
2018-09-20T12:44:35.149Z,31.10
2018-09-20T12:45:08.510Z,31.10
2018-09-20T12:45:41.801Z,31.10
2018-09-20T12:46:15.544Z,31.10
2018-09-20T12:46:48.746Z,31.10
2018-09-20T12:47:22.125Z,31.10
2018-09-20T12:47:55.304Z,31.10
2018-09-20T12:48:28.482Z,31.10
2018-09-20T12:49:02.098Z,31.10
2018-09-20T12:49:35.318Z,31.10
2018-09-20T12:50:08.604Z,31.10
2018-09-20T12:50:41.811Z,31.10
2018-09-20T12:51:15.118Z,31.00
2018-09-20T12:51:48.354Z,31.00
2018-09-20T12:52:21.674Z,31.00
2018-09-20T12:52:54.885Z,31.00
2018-09-20T12:53:28.719Z,30.90
2018-09-20T12:54:02.182Z,30.90
2018-09-20T12:54:35.542Z,30.90
2018-09-20T12:55:09.071Z,30.90
2018-09-20T12:55:42.215Z,30.90
2018-09-20T12:56:15.736Z,30.90
2018-09-20T12:56:49.014Z,30.90
2018-09-20T12:57:22.616Z,30.80
2018-09-20T12:57:55.791Z,30.80
2018-09-20T12:58:34.929Z,30.80
2018-09-20T12:59:08.284Z,30.80
2018-09-20T12:59:42.098Z,30.80
2018-09-20T13:00:15.341Z,30.80
2018-09-20T13:00:48.836Z,30.80
2018-09-20T13:01:22.369Z,30.80
2018-09-20T13:01:55.824Z,30.80
2018-09-20T13:02:29.056Z,30.80
2018-09-20T13:03:02.281Z,30.80
2018-09-20T13:03:35.756Z,30.80
2018-09-20T13:04:09.811Z,30.80
2018-09-20T13:04:43.974Z,30.80
2018-09-20T13:05:17.959Z,30.70
2018-09-20T13:05:51.145Z,30.70
2018-09-20T13:06:24.984Z,30.70
2018-09-20T13:06:58.220Z,30.60
2018-09-20T13:07:31.451Z,30.60
2018-09-20T13:08:05.039Z,30.60
2018-09-20T13:08:38.824Z,30.50
2018-09-20T13:09:12.521Z,30.50
2018-09-20T13:09:45.802Z,30.50
2018-09-20T13:10:18.981Z,30.40
2018-09-20T13:10:52.142Z,30.40
2018-09-20T13:11:25.405Z,30.40
2018-09-20T13:11:58.744Z,30.40
2018-09-20T13:12:31.922Z,30.40
2018-09-20T13:13:05.277Z,30.40
2018-09-20T13:13:38.950Z,30.40
2018-09-20T13:14:12.132Z,30.40
2018-09-20T13:14:45.771Z,30.50
2018-09-20T13:15:18.950Z,30.50
2018-09-20T13:15:52.418Z,30.50
2018-09-20T13:16:25.834Z,30.50
2018-09-20T13:16:59.128Z,30.50
2018-09-20T13:17:32.463Z,30.50
2018-09-20T13:18:05.724Z,30.50
2018-09-20T13:18:38.926Z,30.50
2018-09-20T13:19:12.131Z,30.50
2018-09-20T13:19:45.287Z,30.50
2018-09-20T13:20:18.678Z,30.50
2018-09-20T13:20:51.893Z,30.50
2018-09-20T13:21:25.129Z,30.50
2018-09-20T13:21:58.416Z,30.50
2018-09-20T13:22:31.656Z,30.50
2018-09-20T13:23:04.846Z,30.50
2018-09-20T13:23:38.042Z,30.50
2018-09-20T13:24:11.291Z,30.50
2018-09-20T13:24:44.494Z,30.50
2018-09-20T13:25:17.698Z,30.50
2018-09-20T13:25:51.316Z,30.50
2018-09-20T13:26:24.651Z,30.50
2018-09-20T13:26:58.278Z,30.40
2018-09-20T13:27:31.614Z,30.40
2018-09-20T13:28:04.808Z,30.40
2018-09-20T13:28:38.749Z,30.40
2018-09-20T13:29:12.138Z,30.40
2018-09-20T13:29:45.806Z,30.40
2018-09-20T13:30:19.109Z,30.40
2018-09-20T13:30:52.832Z,30.40
2018-09-20T13:31:26.731Z,30.40
2018-09-20T13:32:00.380Z,30.40
2018-09-20T13:32:34.401Z,30.40
2018-09-20T13:33:08.016Z,30.40
2018-09-20T13:33:42.199Z,30.40
2018-09-20T13:34:15.956Z,30.40
2018-09-20T13:34:49.601Z,30.30
2018-09-20T13:35:22.804Z,30.40
2018-09-20T13:35:56.947Z,30.30
2018-09-20T13:36:31.090Z,30.40
2018-09-20T13:37:04.552Z,30.30
2018-09-20T13:37:37.832Z,30.40
2018-09-20T13:38:11.297Z,30.30
2018-09-20T13:38:45.960Z,30.30
2018-09-20T13:39:19.473Z,30.30
2018-09-20T13:39:52.688Z,30.30
2018-09-20T13:40:26.180Z,30.30
2018-09-20T13:40:59.798Z,30.30
2018-09-20T13:41:32.990Z,30.20
2018-09-20T13:42:06.272Z,30.20
2018-09-20T13:42:39.691Z,30.20
2018-09-20T13:43:12.961Z,30.20
2018-09-20T13:43:46.232Z,30.20
2018-09-20T13:44:19.389Z,30.20
2018-09-20T13:44:52.553Z,30.10
2018-09-20T13:45:25.744Z,30.10
2018-09-20T13:45:59.084Z,30.20
2018-09-20T13:46:32.448Z,30.10
2018-09-20T13:47:06.264Z,30.10
2018-09-20T13:47:39.478Z,30.10
2018-09-20T13:48:12.888Z,30.10
2018-09-20T13:48:46.093Z,30.10
2018-09-20T13:49:19.354Z,30.10
2018-09-20T13:49:52.638Z,30.10
2018-09-20T13:50:25.831Z,30.10
2018-09-20T13:50:59.102Z,30.10
2018-09-20T13:51:32.497Z,30.10
2018-09-20T13:52:06.482Z,30.10
2018-09-20T13:52:39.660Z,30.10
2018-09-20T13:53:12.861Z,30.10
2018-09-20T13:53:46.134Z,30.10
2018-09-20T13:54:19.523Z,30.00
2018-09-20T13:54:53.396Z,30.00
2018-09-20T13:55:26.594Z,30.00
2018-09-20T13:55:59.832Z,30.00
2018-09-20T13:56:33.052Z,29.90
2018-09-20T13:57:06.359Z,29.90
2018-09-20T13:57:39.574Z,29.90
2018-09-20T13:58:12.774Z,29.90
2018-09-20T13:58:48.312Z,29.90
2018-09-20T13:59:21.502Z,29.80
2018-09-20T13:59:54.710Z,29.80
2018-09-20T14:00:28.171Z,29.80
2018-09-20T14:01:01.408Z,29.80
2018-09-20T14:01:34.700Z,29.70
2018-09-20T14:02:08.038Z,29.70
2018-09-20T14:02:41.239Z,29.70
2018-09-20T14:03:14.664Z,29.70
2018-09-20T14:03:48.227Z,29.60
2018-09-20T14:04:21.419Z,29.60
2018-09-20T14:04:54.932Z,29.60
2018-09-20T14:05:28.165Z,29.60
2018-09-20T14:06:01.837Z,29.60
2018-09-20T14:06:34.969Z,29.60
2018-09-20T14:07:08.214Z,29.60
2018-09-20T14:07:41.384Z,29.60
2018-09-20T14:08:14.577Z,29.60
2018-09-20T14:08:48.357Z,29.60
2018-09-20T14:09:21.522Z,29.60
2018-09-20T14:09:54.784Z,29.60
2018-09-20T14:10:28.171Z,29.50
2018-09-20T14:11:01.428Z,29.50
2018-09-20T14:11:34.932Z,29.50
2018-09-20T14:12:08.343Z,29.50
2018-09-20T14:12:41.960Z,29.50
2018-09-20T14:13:15.209Z,29.50
2018-09-20T14:13:48.378Z,29.50
2018-09-20T14:14:21.611Z,29.40
2018-09-20T14:14:54.825Z,29.40
2018-09-20T14:15:28.192Z,29.40
2018-09-20T14:16:01.397Z,29.40
2018-09-20T14:16:35.109Z,29.40
2018-09-20T14:17:08.310Z,29.40
2018-09-20T14:17:41.450Z,29.40
2018-09-20T14:18:14.731Z,29.40
2018-09-20T14:18:47.904Z,29.40
2018-09-20T14:19:21.092Z,29.40
2018-09-20T14:19:54.268Z,29.40
2018-09-20T14:20:27.481Z,29.40
2018-09-20T14:21:01.289Z,29.40
2018-09-20T14:21:34.621Z,29.40
2018-09-20T14:22:08.171Z,29.40
2018-09-20T14:22:41.367Z,29.40
2018-09-20T14:23:15.195Z,29.40
2018-09-20T14:23:48.823Z,29.40
2018-09-20T14:24:22.215Z,29.40
2018-09-20T14:24:55.668Z,29.40
2018-09-20T14:25:28.851Z,29.40
2018-09-20T14:26:02.699Z,29.40
2018-09-20T14:26:36.125Z,29.40
2018-09-20T14:27:10.210Z,29.40
2018-09-20T14:27:43.468Z,29.40
2018-09-20T14:28:16.898Z,29.40
2018-09-20T14:28:50.330Z,29.30
2018-09-20T14:29:23.922Z,29.30
2018-09-20T14:29:57.136Z,29.30
2018-09-20T14:30:30.311Z,29.30
2018-09-20T14:31:03.527Z,29.30
2018-09-20T14:31:36.860Z,29.20
2018-09-20T14:32:10.319Z,29.30
2018-09-20T14:32:43.559Z,29.20
2018-09-20T14:33:16.787Z,29.30
2018-09-20T14:33:49.979Z,29.30
2018-09-20T14:34:23.150Z,29.20
2018-09-20T14:34:56.319Z,29.30
2018-09-20T14:35:29.522Z,29.30
2018-09-20T14:36:02.780Z,29.30
2018-09-20T14:36:35.995Z,29.30
2018-09-20T14:37:09.941Z,29.30
2018-09-20T14:37:43.174Z,29.30
2018-09-20T14:38:16.482Z,29.30
2018-09-20T14:38:49.873Z,29.30
2018-09-20T14:39:23.226Z,29.20
2018-09-20T14:39:56.387Z,29.20
2018-09-20T14:40:29.712Z,29.20
2018-09-20T14:41:03.053Z,29.20
2018-09-20T14:41:36.254Z,29.20
2018-09-20T14:42:09.509Z,29.20
2018-09-20T14:42:42.740Z,29.20
2018-09-20T14:43:15.968Z,29.20
2018-09-20T14:43:49.509Z,29.20
2018-09-20T14:44:22.729Z,29.20
2018-09-20T14:44:55.961Z,29.20
2018-09-20T14:45:29.548Z,29.20
2018-09-20T14:46:03.465Z,29.20
2018-09-20T14:46:36.626Z,29.20
2018-09-20T14:47:09.867Z,29.20
2018-09-20T14:47:43.312Z,29.20
2018-09-20T14:48:16.841Z,29.20
2018-09-20T14:48:50.097Z,29.20
2018-09-20T14:49:23.298Z,29.20
2018-09-20T14:49:56.455Z,29.20
2018-09-20T14:50:29.794Z,29.20
2018-09-20T14:51:03.677Z,29.20
2018-09-20T14:51:37.024Z,29.20
2018-09-20T14:52:10.298Z,29.20
2018-09-20T14:52:43.583Z,29.20
2018-09-20T14:53:16.753Z,29.20
2018-09-20T14:53:49.930Z,29.20
2018-09-20T14:54:23.105Z,29.20
2018-09-20T14:54:56.284Z,29.20
2018-09-20T14:55:30.303Z,29.20
2018-09-20T14:56:10.290Z,29.20
2018-09-20T14:56:43.471Z,29.20
2018-09-20T14:57:16.662Z,29.20
2018-09-20T14:57:49.899Z,29.10
2018-09-20T14:58:23.094Z,29.20
2018-09-20T14:58:56.323Z,29.10
2018-09-20T14:59:29.929Z,29.10
2018-09-20T15:00:03.147Z,29.10
2018-09-20T15:00:36.564Z,29.10
2018-09-20T15:01:10.049Z,29.10
2018-09-20T15:01:43.222Z,29.10
2018-09-20T15:02:16.579Z,29.10
2018-09-20T15:02:49.843Z,29.10
2018-09-20T15:03:23.362Z,29.10
2018-09-20T15:03:56.789Z,29.10
2018-09-20T15:04:30.040Z,29.10
2018-09-20T15:05:03.215Z,29.10
2018-09-20T15:05:36.405Z,29.10
2018-09-20T15:06:09.585Z,29.10
2018-09-20T15:06:42.828Z,29.10
2018-09-20T15:07:16.034Z,29.10
2018-09-20T15:07:49.239Z,29.10
2018-09-20T15:08:22.533Z,29.10
2018-09-20T15:08:55.871Z,29.10
2018-09-20T15:09:29.356Z,29.10
2018-09-20T15:10:02.635Z,29.10
2018-09-20T15:10:35.956Z,29.10
2018-09-20T15:11:09.379Z,29.10
2018-09-20T15:11:42.805Z,29.10
2018-09-20T15:12:16.223Z,29.10
2018-09-20T15:12:49.598Z,29.10
2018-09-20T15:13:23.542Z,29.10
2018-09-20T15:13:56.891Z,29.10
2018-09-20T15:14:30.227Z,29.10
2018-09-20T15:15:03.518Z,29.10
2018-09-20T15:15:36.782Z,29.10
2018-09-20T15:16:09.973Z,29.00
2018-09-20T15:16:43.202Z,29.10
2018-09-20T15:17:16.755Z,29.10
2018-09-20T15:17:50.534Z,29.00
2018-09-20T15:18:23.782Z,29.00
2018-09-20T15:18:57.013Z,29.00
2018-09-20T15:19:30.278Z,29.00
2018-09-20T15:20:03.727Z,29.00
2018-09-20T15:20:37.081Z,29.00
2018-09-20T15:21:10.718Z,29.00
2018-09-20T15:21:43.873Z,29.00
2018-09-20T15:22:17.060Z,28.90
2018-09-20T15:22:50.206Z,28.90
2018-09-20T15:23:24.025Z,28.90
2018-09-20T15:23:57.189Z,28.90
2018-09-20T15:24:30.429Z,28.90
2018-09-20T15:25:03.739Z,28.90
2018-09-20T15:25:36.950Z,28.90
2018-09-20T15:26:10.129Z,28.90
2018-09-20T15:26:43.523Z,28.90
2018-09-20T15:27:16.762Z,28.90
2018-09-20T15:27:50.303Z,28.90
2018-09-20T15:28:23.611Z,28.90
2018-09-20T15:28:56.832Z,28.90
2018-09-20T15:29:30.390Z,28.90
2018-09-20T15:30:03.739Z,28.90
2018-09-20T15:30:36.928Z,28.90
2018-09-20T15:31:10.253Z,28.90
2018-09-20T15:31:43.567Z,28.80
2018-09-20T15:32:16.780Z,28.90
2018-09-20T15:32:49.984Z,28.80
2018-09-20T15:33:23.158Z,28.80
2018-09-20T15:33:56.863Z,28.80
2018-09-20T15:34:30.424Z,28.80
2018-09-20T15:35:03.735Z,28.80
2018-09-20T15:35:37.012Z,28.80
2018-09-20T15:36:10.221Z,28.80
2018-09-20T15:36:43.664Z,28.80
2018-09-20T15:37:16.852Z,28.80
2018-09-20T15:37:50.174Z,28.80
2018-09-20T15:38:23.483Z,28.80
2018-09-20T15:38:56.933Z,28.80
2018-09-20T15:39:30.386Z,28.80
2018-09-20T15:40:04.251Z,28.80
2018-09-20T15:40:37.419Z,28.80
2018-09-20T15:41:10.737Z,28.80
2018-09-20T15:41:44.136Z,28.80
2018-09-20T15:42:17.369Z,28.80
2018-09-20T15:42:50.662Z,28.80
2018-09-20T15:43:23.979Z,28.80
2018-09-20T15:43:57.374Z,28.80
2018-09-20T15:44:30.662Z,28.70
2018-09-20T15:45:04.114Z,28.70
2018-09-20T15:45:37.305Z,28.70
2018-09-20T15:46:10.494Z,28.70
2018-09-20T15:46:43.720Z,28.70
2018-09-20T15:47:17.175Z,28.70
2018-09-20T15:47:50.514Z,28.70
2018-09-20T15:48:23.819Z,28.70
2018-09-20T15:48:56.973Z,28.70
2018-09-20T15:49:30.375Z,28.70
2018-09-20T15:50:03.706Z,28.70
2018-09-20T15:50:37.125Z,28.70
2018-09-20T15:51:10.324Z,28.70
2018-09-20T15:51:43.506Z,28.70
2018-09-20T15:52:16.825Z,28.70
2018-09-20T15:52:50.165Z,28.70
2018-09-20T15:53:23.443Z,28.70
2018-09-20T15:53:56.641Z,28.70
2018-09-20T15:54:30.012Z,28.70
2018-09-20T15:55:03.453Z,28.70
2018-09-20T15:55:37.177Z,28.70
2018-09-20T15:56:10.793Z,28.70
2018-09-20T15:56:43.999Z,28.70
2018-09-20T15:57:17.199Z,28.70
2018-09-20T15:57:50.468Z,28.70
2018-09-20T15:58:23.948Z,28.70
2018-09-20T15:58:57.214Z,28.70
2018-09-20T15:59:30.495Z,28.60
2018-09-20T16:00:04.046Z,28.60
2018-09-20T16:00:37.199Z,28.70
2018-09-20T16:01:11.461Z,28.70
2018-09-20T16:01:44.676Z,28.60
2018-09-20T16:02:17.901Z,28.60
2018-09-20T16:02:51.252Z,28.60
2018-09-20T16:03:25.043Z,28.60
2018-09-20T16:03:59.635Z,28.60
2018-09-20T16:04:32.855Z,28.60
2018-09-20T16:05:06.008Z,28.60
2018-09-20T16:05:39.279Z,28.60
2018-09-20T16:06:12.822Z,28.60
2018-09-20T16:06:46.065Z,28.50
2018-09-20T16:07:19.297Z,28.60
2018-09-20T16:07:52.599Z,28.50
2018-09-20T16:08:26.056Z,28.50
2018-09-20T16:08:59.326Z,28.50
2018-09-20T16:09:32.624Z,28.50
2018-09-20T16:10:06.040Z,28.50
2018-09-20T16:10:39.206Z,28.60
2018-09-20T16:11:12.451Z,28.50
2018-09-20T16:11:45.690Z,28.50
2018-09-20T16:12:19.114Z,28.50
2018-09-20T16:12:52.859Z,28.50
2018-09-20T16:13:26.201Z,28.50
2018-09-20T16:14:00.082Z,28.50
2018-09-20T16:14:33.375Z,28.50
2018-09-20T16:15:07.160Z,28.50
2018-09-20T16:15:40.334Z,28.40
2018-09-20T16:16:13.575Z,28.50
2018-09-20T16:16:47.049Z,28.50
2018-09-20T16:17:20.283Z,28.50
2018-09-20T16:17:55.360Z,28.50
2018-09-20T16:18:28.579Z,28.50
2018-09-20T16:19:02.357Z,28.40
2018-09-20T16:19:35.736Z,28.40
2018-09-20T16:20:09.026Z,28.40
2018-09-20T16:20:42.277Z,28.40
2018-09-20T16:21:15.574Z,28.30
2018-09-20T16:21:48.870Z,28.30
2018-09-20T16:22:22.244Z,28.30